createdAt,value
2018-06-23T00:01:21.713Z,9.32
2018-06-23T00:03:49.799Z,9.28
2018-06-23T00:06:17.891Z,9.24
2018-06-23T00:08:45.983Z,9.12
2018-06-23T00:11:14.194Z,9.03
2018-06-23T00:13:42.384Z,9.03
2018-06-23T00:16:11.088Z,8.94
2018-06-23T00:18:39.461Z,8.93
2018-06-23T00:21:07.572Z,8.93
2018-06-23T00:23:35.749Z,8.84
2018-06-23T00:26:09.280Z,8.75
2018-06-23T00:28:38.037Z,8.73
2018-06-23T00:31:06.454Z,8.65
2018-06-23T00:33:34.648Z,8.61
2018-06-23T00:36:02.867Z,8.76
2018-06-23T00:38:30.952Z,8.84
2018-06-23T00:40:59.033Z,8.83
2018-06-23T00:43:27.437Z,8.91
2018-06-23T00:45:55.505Z,8.93
2018-06-23T00:48:23.695Z,8.79
2018-06-23T00:50:51.787Z,8.68
2018-06-23T00:53:19.903Z,8.49
2018-06-23T00:55:48.061Z,8.49
2018-06-23T00:58:16.809Z,8.50
2018-06-23T01:00:45.339Z,8.54
2018-06-23T01:03:13.508Z,8.54
2018-06-23T01:05:41.832Z,8.57
2018-06-23T01:08:09.916Z,8.55
2018-06-23T01:10:38.152Z,8.48
2018-06-23T01:13:06.344Z,8.50
2018-06-23T01:15:34.460Z,8.58
2018-06-23T01:18:02.640Z,8.63
2018-06-23T01:20:30.720Z,8.67
2018-06-23T01:22:58.790Z,8.76
2018-06-23T01:25:26.964Z,8.65
2018-06-23T01:27:56.535Z,8.56
2018-06-23T01:30:24.696Z,8.48
2018-06-23T01:32:52.799Z,8.51
2018-06-23T01:35:20.965Z,8.40
2018-06-23T01:37:49.295Z,8.33
2018-06-23T01:40:17.376Z,8.39
2018-06-23T01:42:45.595Z,8.50
2018-06-23T01:45:13.664Z,8.42
2018-06-23T01:47:41.781Z,8.31
2018-06-23T01:50:09.920Z,8.21
2018-06-23T01:52:39.040Z,8.26
2018-06-23T01:55:07.384Z,8.39
2018-06-23T01:57:35.505Z,8.49
2018-06-23T02:00:03.576Z,8.51
2018-06-23T02:02:31.796Z,8.50
2018-06-23T02:04:59.932Z,8.46
2018-06-23T02:07:28.076Z,8.49
2018-06-23T02:09:56.160Z,8.39
2018-06-23T02:12:24.344Z,8.60
2018-06-23T02:14:57.792Z,8.54
2018-06-23T02:17:31.380Z,8.54
2018-06-23T02:20:04.839Z,8.41
2018-06-23T02:22:38.203Z,8.48
2018-06-23T02:25:11.528Z,8.32
2018-06-23T02:27:44.924Z,8.28
2018-06-23T02:30:18.624Z,8.20
2018-06-23T02:32:50.949Z,8.14
2018-06-23T02:35:19.300Z,8.03
2018-06-23T02:37:47.384Z,7.97
2018-06-23T02:40:15.594Z,7.91
2018-06-23T02:42:43.797Z,7.98
2018-06-23T02:45:12.566Z,7.87
2018-06-23T02:47:40.764Z,7.96
2018-06-23T02:50:08.852Z,8.29
2018-06-23T02:52:36.991Z,8.17
2018-06-23T02:55:05.235Z,8.05
2018-06-23T02:57:33.348Z,7.91
2018-06-23T03:00:01.657Z,7.76
2018-06-23T03:02:29.657Z,7.80
2018-06-23T03:04:57.716Z,7.76
2018-06-23T03:07:25.899Z,7.73
2018-06-23T03:09:56.033Z,7.88
2018-06-23T03:12:24.164Z,7.69
2018-06-23T03:14:52.292Z,7.67
2018-06-23T03:17:20.468Z,7.65
2018-06-23T03:19:49.905Z,7.59
2018-06-23T03:22:18.276Z,7.68
2018-06-23T03:24:46.814Z,7.80
2018-06-23T03:27:15.155Z,7.88
2018-06-23T03:29:44.039Z,7.75
2018-06-23T03:32:12.531Z,7.74
2018-06-23T03:34:40.668Z,7.80
2018-06-23T03:37:08.746Z,7.78
2018-06-23T03:39:37.113Z,7.86
2018-06-23T03:42:05.396Z,8.02
2018-06-23T03:44:33.679Z,8.04
2018-06-23T03:47:01.957Z,8.32
2018-06-23T03:49:30.610Z,8.61
2018-06-23T03:51:59.155Z,8.83
2018-06-23T03:54:27.374Z,8.99
2018-06-23T03:56:56.376Z,9.15
2018-06-23T03:59:24.491Z,9.00
2018-06-23T04:01:52.939Z,8.96
2018-06-23T04:04:21.036Z,8.91
2018-06-23T04:06:49.993Z,8.87
2018-06-23T04:09:18.232Z,9.03
2018-06-23T04:11:46.345Z,8.95
2018-06-23T04:14:14.412Z,8.83
2018-06-23T04:16:42.822Z,8.73
2018-06-23T04:19:10.980Z,8.71
2018-06-23T04:21:39.157Z,9.05
2018-06-23T04:24:07.215Z,9.99
2018-06-23T04:26:35.399Z,10.86
2018-06-23T04:29:03.559Z,11.44
2018-06-23T04:31:31.636Z,11.22
2018-06-23T04:33:59.808Z,10.69
2018-06-23T04:36:27.923Z,10.14
2018-06-23T04:38:56.101Z,9.87
2018-06-23T04:41:24.275Z,10.00
2018-06-23T04:43:52.477Z,9.98
2018-06-23T04:46:20.591Z,10.87
2018-06-23T04:48:48.801Z,11.34
2018-06-23T04:51:17.096Z,11.46
2018-06-23T04:53:47.336Z,11.67
2018-06-23T04:56:16.947Z,12.52
2018-06-23T04:58:45.127Z,12.38
2018-06-23T05:01:13.340Z,12.07
2018-06-23T05:03:41.484Z,11.67
2018-06-23T05:06:09.761Z,11.31
2018-06-23T05:08:38.794Z,11.56
2018-06-23T05:11:07.215Z,12.18
2018-06-23T05:13:35.411Z,12.14
2018-06-23T05:16:03.698Z,11.68
2018-06-23T05:18:31.868Z,12.16
2018-06-23T05:21:00.191Z,13.73
2018-06-23T05:23:28.316Z,14.10
2018-06-23T05:25:56.423Z,14.20
2018-06-23T05:28:24.576Z,14.14
2018-06-23T05:30:52.840Z,13.64
2018-06-23T05:33:22.253Z,14.43
2018-06-23T05:35:50.520Z,15.53
2018-06-23T05:38:18.649Z,16.10
2018-06-23T05:40:47.051Z,16.66
2018-06-23T05:43:15.175Z,17.62
2018-06-23T05:45:44.012Z,18.62
2018-06-23T05:48:12.439Z,19.38
2018-06-23T05:50:40.900Z,20.57
2018-06-23T05:53:09.958Z,21.13
2018-06-23T05:55:38.093Z,21.55
2018-06-23T05:58:06.332Z,21.68
2018-06-23T06:00:35.397Z,20.63
2018-06-23T06:03:04.335Z,20.71
2018-06-23T06:05:32.589Z,20.54
2018-06-23T06:08:00.796Z,20.54
2018-06-23T06:10:28.998Z,21.28
2018-06-23T06:12:57.256Z,21.53
2018-06-23T06:15:25.984Z,20.88
2018-06-23T06:17:54.188Z,20.54
2018-06-23T06:20:22.292Z,21.18
2018-06-23T06:22:50.607Z,21.19
2018-06-23T06:25:20.315Z,19.51
2018-06-23T06:27:48.559Z,20.35
2018-06-23T06:30:17.022Z,20.31
2018-06-23T06:32:45.832Z,19.77
2018-06-23T06:35:14.204Z,19.06
2018-06-23T06:37:42.312Z,19.10
2018-06-23T06:40:10.448Z,18.57
2018-06-23T06:42:40.096Z,18.46
2018-06-23T06:45:08.447Z,18.30
2018-06-23T06:47:36.750Z,18.41
2018-06-23T06:50:05.674Z,17.85
2018-06-23T06:52:33.923Z,17.53
2018-06-23T06:55:02.046Z,17.33
2018-06-23T06:57:30.122Z,17.10
2018-06-23T06:59:58.227Z,17.07
2018-06-23T07:02:26.591Z,17.02
2018-06-23T07:04:54.856Z,16.78
2018-06-23T07:07:23.045Z,17.03
2018-06-23T07:09:51.207Z,16.94
2018-06-23T07:12:19.327Z,17.10
2018-06-23T07:14:47.667Z,16.78
2018-06-23T07:17:15.819Z,16.39
2018-06-23T07:19:44.188Z,16.98
2018-06-23T07:22:12.604Z,16.83
2018-06-23T07:24:40.713Z,16.13
2018-06-23T07:27:08.808Z,16.03
2018-06-23T07:29:38.553Z,15.90
2018-06-23T07:32:06.765Z,15.04
2018-06-23T07:34:35.003Z,15.13
2018-06-23T07:37:03.140Z,14.94
2018-06-23T07:39:34.077Z,15.41
2018-06-23T07:42:03.338Z,16.01
2018-06-23T07:44:31.583Z,16.40
2018-06-23T07:46:59.825Z,16.23
2018-06-23T07:49:37.968Z,15.99
2018-06-23T07:52:07.892Z,15.86
2018-06-23T07:54:38.897Z,14.48
2018-06-23T07:57:08.169Z,15.34
2018-06-23T07:59:38.188Z,16.08
2018-06-23T08:02:07.560Z,16.28
2018-06-23T08:04:37.344Z,16.10
2018-06-23T08:07:07.006Z,15.96
2018-06-23T08:09:37.149Z,15.86
2018-06-23T08:12:06.596Z,16.00
2018-06-23T08:14:36.085Z,16.52
2018-06-23T08:17:04.493Z,16.90
2018-06-23T08:19:33.801Z,16.71
2018-06-23T08:22:03.396Z,15.90
2018-06-23T08:24:32.349Z,15.64
2018-06-23T08:27:05.027Z,16.09
2018-06-23T08:29:33.533Z,16.41
2018-06-23T08:32:02.643Z,16.26
2018-06-23T08:34:31.593Z,16.30
2018-06-23T08:37:01.387Z,16.48
2018-06-23T08:39:30.709Z,16.65
2018-06-23T08:42:01.792Z,16.67
2018-06-23T08:44:31.228Z,17.15
2018-06-23T08:47:00.228Z,16.70
2018-06-23T08:49:29.756Z,16.69
2018-06-23T08:51:58.589Z,15.76
2018-06-23T08:54:27.317Z,16.03
2018-06-23T08:56:56.027Z,16.27
2018-06-23T08:59:24.647Z,15.89
2018-06-23T09:01:55.033Z,15.86
2018-06-23T09:04:24.009Z,16.35
2018-06-23T09:06:53.191Z,16.31
2018-06-23T09:09:22.129Z,16.44
2018-06-23T09:11:50.482Z,16.69
2018-06-23T09:14:19.043Z,17.27
2018-06-23T09:16:47.566Z,17.30
2018-06-23T09:19:15.814Z,16.71
2018-06-23T09:21:44.191Z,16.26
2018-06-23T09:24:14.412Z,15.73
2018-06-23T09:26:42.612Z,15.79
2018-06-23T09:29:10.786Z,16.00
2018-06-23T09:31:39.102Z,16.46
2018-06-23T09:34:07.656Z,17.18
2018-06-23T09:36:36.044Z,17.77
2018-06-23T09:39:07.367Z,18.07
2018-06-23T09:41:36.625Z,17.90
2018-06-23T09:44:05.352Z,17.35
2018-06-23T09:46:38.080Z,16.99
2018-06-23T09:49:07.104Z,17.03
2018-06-23T09:51:36.081Z,17.12
2018-06-23T09:54:05.594Z,17.38
2018-06-23T09:56:34.014Z,17.47
2018-06-23T09:59:02.793Z,17.11
2018-06-23T10:01:31.141Z,17.06
2018-06-23T10:03:59.340Z,16.62
2018-06-23T10:06:27.861Z,16.48
2018-06-23T10:08:56.022Z,16.68
2018-06-23T10:11:24.864Z,16.73
2018-06-23T10:13:54.129Z,17.40
2018-06-23T10:16:23.055Z,17.69
2018-06-23T10:18:51.302Z,17.92
2018-06-23T10:21:19.487Z,17.87
2018-06-23T10:23:47.928Z,17.58
2018-06-23T10:26:16.550Z,18.02
2018-06-23T10:28:44.770Z,18.16
2018-06-23T10:31:13.357Z,17.74
2018-06-23T10:33:41.718Z,16.94
2018-06-23T10:36:10.380Z,17.11
2018-06-23T10:38:38.626Z,17.90
2018-06-23T10:41:07.581Z,18.31
2018-06-23T10:43:35.810Z,18.77
2018-06-23T10:46:05.025Z,18.56
2018-06-23T10:48:35.262Z,18.07
2018-06-23T10:51:03.511Z,17.49
2018-06-23T10:53:33.329Z,17.43
2018-06-23T10:56:01.676Z,17.38
2018-06-23T10:58:30.037Z,17.38
2018-06-23T11:00:58.377Z,17.53
2018-06-23T11:03:27.311Z,17.51
2018-06-23T11:05:55.951Z,17.61
2018-06-23T11:08:24.312Z,17.73
2018-06-23T11:10:54.523Z,16.85
2018-06-23T11:13:23.762Z,17.27
2018-06-23T11:15:52.194Z,17.49
2018-06-23T11:18:20.502Z,17.74
2018-06-23T11:20:49.300Z,18.04
2018-06-23T11:23:17.967Z,18.08
2018-06-23T11:25:46.692Z,17.97
2018-06-23T11:28:15.038Z,18.10
2018-06-23T11:30:43.394Z,18.12
2018-06-23T11:33:11.600Z,18.47
2018-06-23T11:35:40.458Z,18.52
2018-06-23T11:38:08.780Z,18.24
2018-06-23T11:40:37.136Z,17.79
2018-06-23T11:43:05.411Z,17.97
2018-06-23T11:45:34.620Z,18.31
2018-06-23T11:48:04.064Z,18.38
2018-06-23T11:50:32.639Z,18.50
2018-06-23T11:53:01.143Z,18.56
2018-06-23T11:55:29.821Z,18.46
2018-06-23T11:57:58.259Z,18.52
2018-06-23T12:00:26.777Z,18.35
2018-06-23T12:02:55.514Z,18.26
2018-06-23T12:05:23.707Z,18.46
2018-06-23T12:07:52.751Z,18.79
2018-06-23T12:10:22.834Z,18.92
2018-06-23T12:12:51.464Z,18.89
2018-06-23T12:15:19.633Z,18.78
2018-06-23T12:17:48.529Z,18.84
2018-06-23T12:20:18.189Z,18.63
2018-06-23T12:22:48.162Z,18.64
2018-06-23T12:25:18.200Z,18.97
2018-06-23T12:27:48.166Z,19.08
2018-06-23T12:30:16.684Z,19.30
2018-06-23T12:32:46.112Z,19.12
2018-06-23T12:35:14.450Z,19.46
2018-06-23T12:37:43.322Z,19.75
2018-06-23T12:40:14.404Z,19.77
2018-06-23T12:42:42.900Z,19.87
2018-06-23T12:45:11.405Z,19.98
2018-06-23T12:47:40.422Z,19.85
2018-06-23T12:50:09.238Z,19.71
2018-06-23T12:52:38.285Z,19.73
2018-06-23T12:55:07.067Z,19.69
2018-06-23T12:57:35.629Z,19.92
2018-06-23T13:00:04.762Z,20.11
2018-06-23T13:02:33.985Z,19.88
2018-06-23T13:05:02.768Z,19.96
2018-06-23T13:07:31.536Z,20.02
2018-06-23T13:10:00.664Z,20.00
2018-06-23T13:12:29.481Z,19.72
2018-06-23T13:14:57.889Z,20.03
2018-06-23T13:17:26.886Z,20.04
2018-06-23T13:19:56.146Z,20.20
2018-06-23T13:22:24.701Z,20.34
2018-06-23T13:24:53.747Z,19.97
2018-06-23T13:27:22.609Z,20.05
2018-06-23T13:29:51.112Z,19.99
2018-06-23T13:32:21.061Z,20.20
2018-06-23T13:34:50.706Z,20.19
2018-06-23T13:37:19.222Z,20.38
2018-06-23T13:39:47.686Z,20.57
2018-06-23T13:42:16.064Z,20.46
2018-06-23T13:44:45.042Z,20.11
2018-06-23T13:47:13.409Z,20.28
2018-06-23T13:49:41.538Z,20.11
2018-06-23T13:52:09.906Z,20.11
2018-06-23T13:54:39.041Z,20.50
2018-06-23T13:57:07.462Z,20.37
2018-06-23T13:59:35.836Z,19.94
2018-06-23T14:02:04.513Z,20.26
2018-06-23T14:04:33.172Z,19.97
2018-06-23T14:07:02.464Z,20.38
2018-06-23T14:09:30.854Z,20.30
2018-06-23T14:11:59.036Z,20.12
2018-06-23T14:14:27.396Z,19.95
2018-06-23T14:16:57.244Z,20.14
2018-06-23T14:19:25.734Z,20.30
2018-06-23T14:21:54.184Z,20.23
2018-06-23T14:24:25.225Z,20.31
2018-06-23T14:26:56.155Z,20.25
2018-06-23T14:29:25.311Z,20.17
2018-06-23T14:31:53.969Z,20.47
2018-06-23T14:34:23.418Z,20.71
2018-06-23T14:36:52.196Z,20.04
2018-06-23T14:39:20.676Z,20.47
2018-06-23T14:41:49.477Z,20.53
2018-06-23T14:44:18.778Z,20.53
2018-06-23T14:46:47.189Z,20.22
2018-06-23T14:49:15.508Z,19.92
2018-06-23T14:51:44.405Z,20.62
2018-06-23T14:54:13.790Z,21.26
2018-06-23T14:56:44.872Z,21.24
2018-06-23T14:59:14.224Z,20.71
2018-06-23T15:01:46.149Z,20.21
2018-06-23T15:04:16.246Z,20.51
2018-06-23T15:07:02.730Z,20.54
2018-06-23T15:09:42.076Z,20.37
2018-06-23T15:12:21.393Z,20.39
2018-06-23T15:14:49.885Z,20.16
2018-06-23T15:17:20.294Z,20.37
2018-06-23T15:19:49.184Z,20.87
2018-06-23T15:22:20.424Z,21.46
2018-06-23T15:24:49.260Z,21.59
2018-06-23T15:27:18.373Z,20.74
2018-06-23T15:29:47.672Z,20.93
2018-06-23T15:32:17.854Z,20.71
2018-06-23T15:34:49.194Z,20.61
2018-06-23T15:37:19.455Z,21.47
2018-06-23T15:39:49.422Z,21.90
2018-06-23T15:42:18.582Z,21.68
2018-06-23T15:44:47.650Z,22.13
2018-06-23T15:47:18.225Z,22.18
2018-06-23T15:49:47.494Z,21.38
2018-06-23T15:52:17.402Z,20.73
2018-06-23T15:54:46.621Z,20.41
2018-06-23T15:57:16.910Z,20.93
2018-06-23T15:59:46.726Z,20.70
2018-06-23T16:02:15.740Z,20.40
2018-06-23T16:04:45.092Z,20.09
2018-06-23T16:07:14.670Z,19.90
2018-06-23T16:09:44.351Z,20.54
2018-06-23T16:12:14.903Z,20.45
2018-06-23T16:14:44.745Z,20.24
2018-06-23T16:17:14.462Z,19.90
2018-06-23T16:19:43.520Z,19.92
2018-06-23T16:22:12.901Z,19.61
2018-06-23T16:24:41.867Z,19.76
2018-06-23T16:27:17.213Z,19.87
2018-06-23T16:29:46.431Z,19.87
2018-06-23T16:32:15.980Z,19.78
2018-06-23T16:34:46.576Z,19.64
2018-06-23T16:37:15.847Z,19.60
2018-06-23T16:39:44.880Z,19.27
2018-06-23T16:42:14.922Z,19.28
2018-06-23T16:44:43.475Z,19.22
2018-06-23T16:47:12.340Z,19.43
2018-06-23T16:49:42.067Z,19.30
2018-06-23T16:52:11.894Z,19.51
2018-06-23T16:54:41.485Z,19.36
2018-06-23T16:57:17.143Z,19.24
2018-06-23T16:59:46.154Z,19.13
2018-06-23T17:02:14.882Z,18.92
2018-06-23T17:04:43.563Z,18.73
2018-06-23T17:07:13.321Z,18.82
2018-06-23T17:09:41.804Z,18.94
2018-06-23T17:12:11.153Z,18.71
2018-06-23T17:20:30.491Z,18.40
2018-06-23T17:23:00.499Z,18.40
2018-06-23T17:26:02.246Z,18.35
2018-06-23T17:28:35.846Z,18.21
2018-06-23T17:31:04.457Z,18.09
2018-06-23T17:33:33.772Z,17.92
2018-06-23T17:42:22.789Z,17.82
2018-06-23T17:47:47.521Z,17.76
2018-06-23T17:50:16.000Z,17.76
2018-06-23T17:52:46.328Z,17.77
2018-06-23T17:55:15.611Z,17.74
2018-06-23T18:03:41.753Z,17.74
2018-06-23T18:06:23.809Z,17.61
2018-06-23T18:11:44.404Z,17.54
2018-06-23T18:14:19.309Z,17.50
2018-06-23T18:16:50.509Z,17.36
2018-06-23T18:19:42.125Z,17.36
2018-06-23T18:22:11.645Z,17.13
2018-06-23T18:24:43.933Z,17.24
2018-06-23T18:27:12.680Z,17.18
2018-06-23T18:29:42.076Z,17.26
2018-06-23T18:32:10.805Z,17.24
2018-06-23T18:34:49.996Z,17.12
2018-06-23T18:37:25.292Z,17.09
2018-06-23T18:39:54.137Z,17.04
2018-06-23T18:42:23.378Z,17.00
2018-06-23T18:44:58.452Z,16.97
2018-06-23T18:47:27.025Z,16.94
2018-06-23T18:49:55.518Z,16.90
2018-06-23T18:52:26.225Z,16.93
2018-06-23T18:54:59.828Z,16.88
2018-06-23T18:57:31.349Z,16.77
2018-06-23T19:00:01.866Z,16.73
2018-06-23T19:02:38.280Z,16.81
2018-06-23T19:05:08.033Z,16.70
2018-06-23T19:07:36.812Z,16.59
2018-06-23T19:10:05.551Z,16.51
2018-06-23T19:12:45.121Z,16.49
2018-06-23T19:15:13.689Z,16.37
2018-06-23T19:20:35.481Z,16.26
2018-06-23T19:23:10.486Z,16.21
2018-06-23T19:25:39.341Z,16.18
2018-06-23T19:28:16.675Z,16.17
2018-06-23T19:30:45.681Z,16.25
2018-06-23T19:33:14.880Z,16.27
2018-06-23T19:35:43.425Z,16.19
2018-06-23T19:38:12.829Z,16.13
2018-06-23T19:40:59.146Z,16.16
2018-06-23T19:43:27.676Z,16.07
2018-06-23T19:45:58.224Z,15.90
2018-06-23T19:48:31.449Z,15.85
2018-06-23T19:58:05.723Z,15.75
2018-06-23T20:03:42.240Z,15.57
2018-06-23T20:06:14.615Z,15.53
2018-06-23T20:11:29.621Z,15.56
2018-06-23T20:14:06.101Z,15.52
2018-06-23T20:16:38.223Z,15.50
2018-06-23T20:19:14.232Z,15.48
2018-06-23T20:21:43.599Z,15.40
2018-06-23T20:24:13.104Z,15.38
2018-06-23T20:26:51.017Z,15.24
2018-06-23T20:29:21.228Z,15.19
2018-06-23T20:31:49.714Z,14.98
2018-06-23T20:34:18.495Z,14.95
2018-06-23T20:36:47.211Z,14.93
2018-06-23T20:39:20.944Z,14.90
2018-06-23T20:47:44.804Z,15.29
2018-06-23T20:50:15.756Z,15.38
2018-06-23T20:52:44.568Z,15.29
2018-06-23T20:55:31.320Z,15.37
2018-06-23T20:58:11.969Z,15.59
2018-06-23T21:00:57.057Z,15.38
2018-06-23T21:03:27.276Z,15.46
2018-06-23T21:09:01.340Z,15.43
2018-06-23T21:11:43.265Z,15.37
2018-06-23T21:14:25.461Z,15.53
2018-06-23T21:17:02.066Z,15.52
2018-06-23T21:19:31.156Z,15.44
2018-06-23T21:22:13.142Z,15.44
2018-06-23T21:24:42.148Z,15.35
2018-06-23T21:27:12.841Z,15.51
2018-06-23T21:29:41.376Z,15.50
2018-06-23T21:32:17.453Z,15.52
2018-06-23T21:34:47.113Z,15.33
2018-06-23T21:40:08.759Z,15.23
2018-06-23T21:42:37.737Z,15.14
2018-06-23T21:45:06.318Z,15.08
2018-06-23T21:47:35.267Z,15.02
2018-06-23T21:55:05.272Z,15.02
2018-06-23T21:57:34.720Z,15.14
2018-06-23T22:02:57.640Z,14.85
2018-06-23T22:05:34.460Z,14.78
2018-06-23T22:08:03.248Z,14.83
2018-06-23T22:10:32.009Z,14.82
2018-06-23T22:13:02.678Z,14.88
2018-06-23T22:15:31.467Z,15.01
2018-06-23T22:18:00.039Z,14.99
2018-06-23T22:20:29.445Z,15.18
2018-06-23T22:25:38.609Z,14.78
2018-06-23T22:28:07.441Z,14.87
2018-06-23T22:30:44.435Z,14.84
2018-06-23T22:33:13.876Z,14.70
2018-06-23T22:37:27.608Z,14.65
2018-06-23T22:43:01.745Z,14.67
2018-06-23T22:45:33.345Z,14.54
2018-06-23T22:48:08.644Z,14.37
2018-06-23T22:50:47.204Z,14.35
2018-06-23T22:53:16.261Z,14.49
2018-06-23T22:55:44.862Z,14.64
2018-06-23T23:30:46.351Z,14.02
2018-06-23T23:33:14.763Z,14.09
2018-06-23T23:35:43.450Z,13.95
2018-06-23T23:41:04.604Z,14.20
2018-06-23T23:43:33.392Z,13.84
2018-06-23T23:46:01.789Z,13.88
2018-06-23T23:48:45.720Z,13.98
2018-06-23T23:51:14.977Z,14.00
2018-06-23T23:56:54.248Z,13.82
2018-06-23T23:59:54.552Z,13.82
